createdAt,value
2018-05-27T00:02:05.524Z,102270.87
2018-05-27T00:04:33.138Z,102267.72
2018-05-27T00:07:00.815Z,102263.30
2018-05-27T00:09:28.470Z,102258.42
2018-05-27T00:11:56.107Z,102260.11
2018-05-27T00:14:23.798Z,102261.41
2018-05-27T00:16:51.465Z,102257.01
2018-05-27T00:19:19.088Z,102254.83
2018-05-27T00:21:46.795Z,102254.39
2018-05-27T00:24:14.402Z,102253.95
2018-05-27T00:26:42.114Z,102248.30
2018-05-27T00:29:09.782Z,102249.20
2018-05-27T00:31:37.444Z,102240.06
2018-05-27T00:34:05.063Z,102236.58
2018-05-27T00:36:32.711Z,102240.52
2018-05-27T00:39:00.428Z,102247.09
2018-05-27T00:41:28.094Z,102249.81
2018-05-27T00:43:55.706Z,102246.38
2018-05-27T00:46:23.416Z,102253.45
2018-05-27T00:48:51.057Z,102250.89
2018-05-27T00:51:18.675Z,102243.10
2018-05-27T00:53:58.238Z,102236.61
2018-05-27T00:56:25.849Z,102234.44
2018-05-27T00:58:53.597Z,102240.11
2018-05-27T01:01:21.212Z,102237.11
2018-05-27T01:03:48.925Z,102237.19
2018-05-27T01:06:16.572Z,102231.16
2018-05-27T01:08:44.223Z,102229.06
2018-05-27T01:11:11.910Z,102226.98
2018-05-27T01:13:39.551Z,102237.50
2018-05-27T01:16:07.245Z,102240.59
2018-05-27T01:18:34.913Z,102233.23
2018-05-27T01:21:02.570Z,102229.39
2018-05-27T01:23:30.230Z,102225.52
2018-05-27T01:25:57.855Z,102229.94
2018-05-27T01:28:25.559Z,102233.47
2018-05-27T01:30:53.169Z,102232.64
2018-05-27T01:33:20.803Z,102227.93
2018-05-27T01:35:48.423Z,102222.27
2018-05-27T01:38:16.075Z,102222.66
2018-05-27T01:40:43.698Z,102224.84
2018-05-27T01:43:11.337Z,102215.20
2018-05-27T01:45:38.959Z,102217.38
2018-05-27T01:48:06.603Z,102222.17
2018-05-27T01:50:34.229Z,102221.73
2018-05-27T01:53:01.875Z,102216.95
2018-05-27T01:55:29.530Z,102223.53
2018-05-27T01:57:57.199Z,102224.44
2018-05-27T02:00:24.867Z,102220.56
2018-05-27T02:02:52.523Z,102212.28
2018-05-27T02:05:20.177Z,102214.11
2018-05-27T02:07:47.807Z,102208.88
2018-05-27T02:10:15.454Z,102212.05
2018-05-27T02:12:43.180Z,102217.77
2018-05-27T02:15:10.842Z,102210.44
2018-05-27T02:17:38.503Z,102209.17
2018-05-27T02:20:06.168Z,102211.39
2018-05-27T02:22:33.787Z,102209.25
2018-05-27T02:25:01.440Z,102204.85
2018-05-27T02:27:29.064Z,102205.28
2018-05-27T02:29:56.811Z,102200.02
2018-05-27T02:32:24.433Z,102195.22
2018-05-27T02:34:52.088Z,102191.29
2018-05-27T02:37:19.707Z,102187.41
2018-05-27T02:39:47.352Z,102186.09
2018-05-27T02:42:15.029Z,102179.52
2018-05-27T02:44:42.793Z,102185.19
2018-05-27T02:47:11.267Z,102179.08
2018-05-27T02:49:38.908Z,102179.04
2018-05-27T02:52:06.544Z,102179.08
2018-05-27T02:54:34.183Z,102172.10
2018-05-27T02:57:01.821Z,102176.06
2018-05-27T02:59:29.484Z,102175.19
2018-05-27T03:01:57.144Z,102179.55
2018-05-27T03:04:24.803Z,102173.05
2018-05-27T03:06:52.418Z,102176.14
2018-05-27T03:09:20.059Z,102182.73
2018-05-27T03:11:47.712Z,102174.95
2018-05-27T03:14:15.371Z,102174.12
2018-05-27T03:16:42.992Z,102167.61
2018-05-27T03:19:10.683Z,102166.34
2018-05-27T03:21:38.326Z,102165.47
2018-05-27T03:24:06.008Z,102165.51
2018-05-27T03:26:33.763Z,102168.13
2018-05-27T03:29:01.427Z,102167.69
2018-05-27T03:31:29.091Z,102166.34
2018-05-27T03:33:56.756Z,102167.18
2018-05-27T03:36:24.415Z,102164.92
2018-05-27T03:38:52.039Z,102164.45
2018-05-27T03:41:19.679Z,102164.84
2018-05-27T03:43:47.512Z,102171.78
2018-05-27T03:46:15.161Z,102170.47
2018-05-27T03:48:42.788Z,102162.59
2018-05-27T03:51:10.447Z,102159.49
2018-05-27T03:53:38.071Z,102162.58
2018-05-27T03:56:05.815Z,102154.30
2018-05-27T03:58:35.050Z,102161.75
2018-05-27T04:01:02.695Z,102160.52
2018-05-27T04:03:30.339Z,102164.48
2018-05-27T04:06:09.880Z,102156.23
2018-05-27T04:08:37.499Z,102162.78
2018-05-27T04:11:05.143Z,102161.55
2018-05-27T04:13:32.775Z,102161.55
2018-05-27T04:16:00.526Z,102167.25
2018-05-27T04:18:28.147Z,102158.97
2018-05-27T04:20:55.855Z,102163.33
2018-05-27T04:23:23.478Z,102160.27
2018-05-27T04:25:51.179Z,102158.97
2018-05-27T04:28:18.835Z,102156.82
2018-05-27T04:30:46.475Z,102158.20
2018-05-27T04:33:14.127Z,102152.56
2018-05-27T04:35:41.742Z,102156.50
2018-05-27T04:38:09.379Z,102161.33
2018-05-27T04:40:37.000Z,102156.97
2018-05-27T04:43:04.646Z,102155.26
2018-05-27T04:45:32.266Z,102152.67
2018-05-27T04:47:59.940Z,102159.69
2018-05-27T04:50:27.607Z,102161.94
2018-05-27T04:52:55.267Z,102159.83
2018-05-27T04:55:22.931Z,102160.73
2018-05-27T04:57:50.576Z,102160.84
2018-05-27T05:00:18.250Z,102167.92
2018-05-27T05:02:45.911Z,102174.53
2018-05-27T05:05:13.530Z,102175.03
2018-05-27T05:07:41.167Z,102175.51
2018-05-27T05:10:08.788Z,102172.45
2018-05-27T05:15:03.438Z,102179.88
2018-05-27T05:17:31.176Z,102178.56
2018-05-27T05:19:58.809Z,102175.03
2018-05-27T05:22:26.447Z,102178.09
2018-05-27T05:24:54.158Z,102173.32
2018-05-27T05:27:21.809Z,102172.45
2018-05-27T05:29:49.427Z,102174.16
2018-05-27T05:32:17.067Z,102178.97
2018-05-27T05:34:44.712Z,102180.25
2018-05-27T05:37:12.471Z,102178.87
2018-05-27T05:39:40.091Z,102179.75
2018-05-27T05:42:07.711Z,102180.98
2018-05-27T05:44:35.356Z,102181.80
2018-05-27T05:47:03.021Z,102186.52
2018-05-27T05:49:30.664Z,102186.09
2018-05-27T05:51:58.348Z,102184.74
2018-05-27T05:54:26.016Z,102193.88
2018-05-27T05:56:53.659Z,102200.39
2018-05-27T05:59:21.719Z,102199.98
2018-05-27T06:01:49.339Z,102207.48
2018-05-27T06:04:16.983Z,102210.97
2018-05-27T06:06:44.605Z,102209.66
2018-05-27T06:09:12.287Z,102207.55
2018-05-27T06:11:39.906Z,102203.22
2018-05-27T06:14:07.547Z,102210.67
2018-05-27T06:16:35.171Z,102215.95
2018-05-27T06:19:02.821Z,102217.70
2018-05-27T06:21:30.511Z,102226.03
2018-05-27T06:23:58.259Z,102220.35
2018-05-27T06:26:25.884Z,102216.42
2018-05-27T06:28:53.522Z,102216.83
2018-05-27T06:31:21.137Z,102221.19
2018-05-27T06:33:48.814Z,102224.28
2018-05-27T06:36:16.431Z,102221.73
2018-05-27T06:38:44.076Z,102216.09
2018-05-27T06:41:11.694Z,102210.91
2018-05-27T06:43:39.335Z,102208.80
2018-05-27T06:46:07.019Z,102215.91
2018-05-27T06:48:34.692Z,102219.50
2018-05-27T06:51:02.335Z,102216.97
2018-05-27T06:53:29.951Z,102217.96
2018-05-27T06:55:57.596Z,102224.17
2018-05-27T06:58:25.218Z,102223.81
2018-05-27T07:00:52.855Z,102227.83
2018-05-27T07:03:20.554Z,102223.10
2018-05-27T07:05:48.224Z,102222.28
2018-05-27T07:08:15.840Z,102227.55
2018-05-27T07:10:43.498Z,102228.02
2018-05-27T07:13:11.203Z,102227.17
2018-05-27T07:15:38.842Z,102218.45
2018-05-27T07:18:06.459Z,102220.22
2018-05-27T07:20:34.196Z,102226.78
2018-05-27T07:23:01.815Z,102221.97
2018-05-27T07:25:29.455Z,102228.50
2018-05-27T07:27:57.075Z,102227.63
2018-05-27T07:30:24.715Z,102226.27
2018-05-27T07:32:52.335Z,102237.53
2018-05-27T07:35:20.073Z,102243.59
2018-05-27T07:37:47.691Z,102241.44
2018-05-27T07:40:15.343Z,102241.94
2018-05-27T07:42:42.959Z,102245.86
2018-05-27T07:45:10.601Z,102239.31
2018-05-27T07:47:38.223Z,102246.27
2018-05-27T07:50:05.935Z,102247.59
2018-05-27T07:52:33.560Z,102252.42
2018-05-27T07:55:01.230Z,102247.25
2018-05-27T07:57:28.852Z,102248.23
2018-05-27T07:59:56.515Z,102244.36
2018-05-27T08:02:24.134Z,102249.69
2018-05-27T08:04:51.806Z,102244.54
2018-05-27T08:07:19.447Z,102255.11
2018-05-27T08:09:47.063Z,102251.23
2018-05-27T08:12:14.707Z,102244.75
2018-05-27T08:14:42.323Z,102249.19
2018-05-27T08:17:09.963Z,102247.50
2018-05-27T08:19:37.578Z,102254.55
2018-05-27T08:22:05.223Z,102263.75
2018-05-27T08:24:32.855Z,102257.23
2018-05-27T08:27:00.500Z,102257.67
2018-05-27T08:29:28.227Z,102253.35
2018-05-27T08:31:55.898Z,102253.81
2018-05-27T08:34:23.521Z,102255.17
2018-05-27T08:36:51.167Z,102259.14
2018-05-27T08:39:18.782Z,102259.64
2018-05-27T08:41:46.428Z,102258.80
2018-05-27T08:44:14.058Z,102254.50
2018-05-27T08:46:41.704Z,102261.56
2018-05-27T08:49:09.432Z,102254.59
2018-05-27T08:51:37.080Z,102252.85
2018-05-27T08:54:04.703Z,102257.70
2018-05-27T08:56:32.342Z,102261.23
2018-05-27T08:58:59.959Z,102259.52
2018-05-27T09:01:27.679Z,102260.86
2018-05-27T09:03:55.279Z,102263.13
2018-05-27T09:06:22.925Z,102262.69
2018-05-27T09:08:50.544Z,102260.49
2018-05-27T09:11:18.195Z,102259.61
2018-05-27T09:13:45.815Z,102260.92
2018-05-27T09:16:13.435Z,102256.92
2018-05-27T09:18:41.075Z,102252.08
2018-05-27T09:21:08.697Z,102249.39
2018-05-27T09:23:36.342Z,102252.38
2018-05-27T09:26:04.057Z,102257.64
2018-05-27T09:28:31.733Z,102260.72
2018-05-27T09:30:59.374Z,102258.91
2018-05-27T09:33:27.759Z,102257.99
2018-05-27T09:35:55.386Z,102256.63
2018-05-27T09:38:23.050Z,102252.98
2018-05-27T09:40:50.675Z,102252.48
2018-05-27T09:43:18.319Z,102251.55
2018-05-27T09:45:45.971Z,102249.83
2018-05-27T09:48:13.635Z,102244.18
2018-05-27T09:50:41.253Z,102242.55
2018-05-27T09:53:08.895Z,102237.34
2018-05-27T09:55:36.515Z,102235.20
2018-05-27T09:58:04.230Z,102236.97
2018-05-27T10:00:31.827Z,102237.86
2018-05-27T10:02:59.471Z,102236.09
2018-05-27T10:05:27.101Z,102240.03
2018-05-27T10:07:54.837Z,102235.11
2018-05-27T10:10:22.459Z,102231.97
2018-05-27T10:12:50.113Z,102235.34
2018-05-27T10:15:17.740Z,102224.17
2018-05-27T10:17:45.488Z,102223.16
2018-05-27T10:20:13.147Z,102216.41
2018-05-27T10:22:40.793Z,102211.01
2018-05-27T10:25:08.407Z,102203.36
2018-05-27T10:27:36.067Z,102199.73
2018-05-27T10:30:03.791Z,102196.95
2018-05-27T10:32:31.407Z,102198.57
2018-05-27T10:34:59.124Z,102196.77
2018-05-27T10:37:26.778Z,102198.09
2018-05-27T10:39:54.448Z,102193.67
2018-05-27T10:42:22.066Z,102205.97
2018-05-27T10:44:49.721Z,102201.93
2018-05-27T10:47:17.427Z,102204.43
2018-05-27T10:49:45.091Z,102206.42
2018-05-27T10:52:12.791Z,102200.48
2018-05-27T10:54:40.423Z,102198.88
2018-05-27T10:57:08.079Z,102199.91
2018-05-27T10:59:35.747Z,102198.41
2018-05-27T11:02:03.362Z,102191.13
2018-05-27T11:04:31.004Z,102189.54
2018-05-27T11:06:58.730Z,102187.53
2018-05-27T11:09:26.392Z,102185.97
2018-05-27T11:11:54.011Z,102184.42
2018-05-27T11:14:21.721Z,102189.54
2018-05-27T11:16:49.361Z,102186.34
2018-05-27T11:19:17.046Z,102186.25
2018-05-27T11:21:44.669Z,102179.95
2018-05-27T11:24:12.316Z,102179.68
2018-05-27T11:26:39.935Z,102181.23
2018-05-27T11:29:07.582Z,102176.97
2018-05-27T11:31:35.251Z,102177.58
2018-05-27T11:34:02.891Z,102180.41
2018-05-27T11:36:30.515Z,102182.77
2018-05-27T11:38:58.180Z,102179.42
2018-05-27T11:41:25.808Z,102179.45
2018-05-27T11:43:53.427Z,102174.94
2018-05-27T11:46:21.124Z,102167.25
2018-05-27T11:48:48.799Z,102167.61
2018-05-27T11:51:16.556Z,102167.52
2018-05-27T11:53:44.186Z,102166.14
2018-05-27T11:56:11.831Z,102159.30
2018-05-27T11:58:39.453Z,102158.50
2018-05-27T12:01:07.094Z,102159.47
2018-05-27T12:03:34.715Z,102149.02
2018-05-27T12:06:02.424Z,102141.70
2018-05-27T12:08:30.092Z,102136.36
2018-05-27T12:10:57.732Z,102136.03
2018-05-27T12:13:25.359Z,102126.84
2018-05-27T12:15:53.022Z,102127.32
2018-05-27T12:18:20.647Z,102121.94
2018-05-27T12:20:48.289Z,102117.50
2018-05-27T12:23:15.922Z,102112.44
2018-05-27T12:25:44.224Z,102108.67
2018-05-27T12:28:11.847Z,102105.56
2018-05-27T12:30:39.486Z,102104.80
2018-05-27T12:33:07.108Z,102101.91
2018-05-27T12:35:34.782Z,102099.83
2018-05-27T12:38:02.446Z,102097.66
2018-05-27T12:40:30.087Z,102090.52
2018-05-27T12:42:57.768Z,102085.20
2018-05-27T12:45:25.411Z,102088.70
2018-05-27T12:47:53.030Z,102084.88
2018-05-27T12:50:20.756Z,102081.45
2018-05-27T12:52:48.387Z,102079.02
2018-05-27T12:55:16.054Z,102082.30
2018-05-27T12:57:43.708Z,102078.73
2018-05-27T13:00:11.323Z,102075.78
2018-05-27T13:02:38.972Z,102075.25
2018-05-27T13:05:06.631Z,102070.75
2018-05-27T13:07:34.266Z,102072.08
2018-05-27T13:10:01.884Z,102060.94
2018-05-27T13:12:29.539Z,102052.95
2018-05-27T13:14:57.278Z,102042.66
2018-05-27T13:17:25.530Z,102050.97
2018-05-27T13:19:53.171Z,102040.25
2018-05-27T13:22:20.811Z,102037.16
2018-05-27T13:24:48.432Z,102026.98
2018-05-27T13:27:16.078Z,102033.52
2018-05-27T13:29:43.767Z,102021.39
2018-05-27T13:32:11.412Z,102022.11
2018-05-27T13:34:39.035Z,102018.72
2018-05-27T13:37:06.685Z,102015.41
2018-05-27T13:39:34.313Z,102015.37
2018-05-27T13:42:01.957Z,102009.11
2018-05-27T13:44:29.647Z,101999.74
2018-05-27T13:46:57.403Z,102006.80
2018-05-27T13:49:25.047Z,102005.46
2018-05-27T13:51:52.695Z,102003.73
2018-05-27T13:54:20.395Z,101993.70
2018-05-27T13:56:48.181Z,101994.25
2018-05-27T13:59:15.810Z,102000.55
2018-05-27T14:01:43.450Z,101998.39
2018-05-27T14:04:11.093Z,101986.48
2018-05-27T14:06:38.746Z,101989.03
2018-05-27T14:09:06.359Z,101994.28
2018-05-27T14:11:33.975Z,101986.73
2018-05-27T14:14:01.619Z,101989.39
2018-05-27T14:16:29.355Z,101999.22
2018-05-27T14:18:57.003Z,101983.35
2018-05-27T14:21:24.624Z,101991.05
2018-05-27T14:23:52.340Z,101982.28
2018-05-27T14:26:19.967Z,101986.35
2018-05-27T14:28:47.607Z,101991.75
2018-05-27T14:31:15.335Z,101989.09
2018-05-27T14:33:42.976Z,101989.52
2018-05-27T14:36:10.603Z,101992.18
2018-05-27T14:38:38.314Z,101989.30
2018-05-27T14:41:05.935Z,101990.55
2018-05-27T14:43:33.579Z,101990.41
2018-05-27T14:46:01.196Z,101991.19
2018-05-27T14:48:28.862Z,101988.53
2018-05-27T14:50:56.483Z,101988.13
2018-05-27T14:53:24.135Z,101986.37
2018-05-27T14:55:51.755Z,101990.33
2018-05-27T14:58:19.398Z,101993.42
2018-05-27T15:00:47.075Z,101984.02
2018-05-27T15:03:14.716Z,101985.78
2018-05-27T15:05:42.335Z,101991.27
2018-05-27T15:08:09.975Z,101990.59
2018-05-27T15:10:37.624Z,101976.05
2018-05-27T15:13:05.380Z,101970.37
2018-05-27T15:15:33.003Z,101974.69
2018-05-27T15:18:00.649Z,101959.49
2018-05-27T15:20:28.367Z,101956.69
2018-05-27T15:22:56.031Z,101957.86
2018-05-27T15:25:23.727Z,101958.61
2018-05-27T15:27:51.463Z,101954.85
2018-05-27T15:30:19.219Z,101959.55
2018-05-27T15:32:46.838Z,101952.38
2018-05-27T15:35:14.476Z,101959.55
2018-05-27T15:37:42.095Z,101957.39
2018-05-27T15:40:09.735Z,101953.09
2018-05-27T15:42:37.352Z,101954.42
2018-05-27T15:45:04.996Z,101952.11
2018-05-27T15:47:32.616Z,101952.97
2018-05-27T15:50:00.263Z,101947.12
2018-05-27T15:52:27.891Z,101957.24
2018-05-27T15:54:55.647Z,101947.05
2018-05-27T15:57:23.267Z,101978.56
2018-05-27T15:59:50.984Z,102004.69
2018-05-27T16:02:18.547Z,102007.77
2018-05-27T16:04:46.187Z,102017.19
2018-05-27T16:07:13.803Z,102034.56
2018-05-27T16:09:41.436Z,102042.36
2018-05-27T16:12:09.056Z,102056.08
2018-05-27T16:14:36.690Z,102061.89
2018-05-27T16:17:04.307Z,102044.61
2018-05-27T16:19:31.947Z,102044.88
2018-05-27T16:21:59.619Z,102054.81
2018-05-27T16:24:27.260Z,102046.97
2018-05-27T16:26:54.943Z,102047.08
2018-05-27T16:29:22.606Z,102049.93
2018-05-27T16:31:50.220Z,102049.55
2018-05-27T16:34:17.931Z,102047.52
2018-05-27T16:36:45.552Z,102046.19
2018-05-27T16:39:13.207Z,102038.75
2018-05-27T16:41:40.815Z,102036.18
2018-05-27T16:44:08.430Z,102047.41
2018-05-27T16:46:36.091Z,102041.67
2018-05-27T16:49:03.715Z,102041.30
2018-05-27T16:51:31.558Z,102041.36
2018-05-27T16:53:59.178Z,102039.53
2018-05-27T16:56:26.811Z,102034.64
2018-05-27T16:58:54.465Z,102029.92
2018-05-27T17:01:22.107Z,102025.80
2018-05-27T17:03:49.775Z,102017.30
2018-05-27T17:06:17.441Z,102011.55
2018-05-27T17:08:45.109Z,102009.11
2018-05-27T17:11:12.769Z,102013.30
2018-05-27T17:13:40.508Z,102016.02
2018-05-27T17:16:08.143Z,102016.94
2018-05-27T17:18:35.759Z,102022.20
2018-05-27T17:21:03.391Z,102021.27
2018-05-27T17:23:31.008Z,102020.34
2018-05-27T17:25:58.639Z,102015.89
2018-05-27T17:28:26.251Z,102012.77
2018-05-27T17:30:53.891Z,102007.08
2018-05-27T17:33:21.520Z,102014.13
2018-05-27T17:35:49.156Z,102023.34
2018-05-27T17:38:16.842Z,102033.91
2018-05-27T17:40:44.483Z,102035.34
2018-05-27T17:43:12.275Z,102019.72
2018-05-27T17:45:40.046Z,102026.70
2018-05-27T17:48:10.963Z,102033.34
2018-05-27T17:50:38.583Z,102027.06
2018-05-27T17:53:06.233Z,102029.97
2018-05-27T17:55:33.846Z,102035.39
2018-05-27T17:58:01.498Z,102042.02
2018-05-27T18:00:29.132Z,102037.53
2018-05-27T18:02:56.892Z,102031.28
2018-05-27T18:05:24.631Z,102043.91
2018-05-27T18:07:52.380Z,102056.97
2018-05-27T18:10:20.039Z,102055.91
2018-05-27T18:12:47.711Z,102054.73
2018-05-27T18:15:15.323Z,102055.76
2018-05-27T18:17:42.964Z,102062.48
2018-05-27T18:20:10.683Z,102059.97
2018-05-27T18:22:38.317Z,102067.52
2018-05-27T18:25:06.015Z,102081.73
2018-05-27T18:27:33.676Z,102088.41
2018-05-27T18:30:01.343Z,102090.72
2018-05-27T18:32:28.975Z,102088.58
2018-05-27T18:34:56.582Z,102090.83
2018-05-27T18:37:24.231Z,102101.45
2018-05-27T18:39:51.887Z,102097.98
2018-05-27T18:42:19.519Z,102101.98
2018-05-27T18:44:47.154Z,102110.41
2018-05-27T18:47:14.871Z,102113.54
2018-05-27T18:49:42.483Z,102114.93
2018-05-27T18:52:10.300Z,102118.92
2018-05-27T18:54:37.959Z,102113.23
2018-05-27T18:57:05.591Z,102111.05
2018-05-27T18:59:33.290Z,102114.16
2018-05-27T19:02:01.051Z,102112.89
2018-05-27T19:04:28.810Z,102108.95
2018-05-27T19:06:56.423Z,102112.97
2018-05-27T19:09:24.199Z,102115.62
2018-05-27T19:11:51.812Z,102117.84
2018-05-27T19:14:19.469Z,102114.35
2018-05-27T19:16:47.082Z,102115.66
2018-05-27T19:19:14.723Z,102114.80
2018-05-27T19:21:42.336Z,102121.44
2018-05-27T19:24:09.975Z,102122.78
2018-05-27T19:26:37.586Z,102125.89
2018-05-27T19:29:05.225Z,102129.86
2018-05-27T19:31:32.835Z,102131.22
2018-05-27T19:34:00.476Z,102133.88
2018-05-27T19:36:28.123Z,102135.64
2018-05-27T19:38:55.787Z,102124.67
2018-05-27T19:41:23.401Z,102133.46
2018-05-27T19:43:51.048Z,102131.67
2018-05-27T19:46:18.766Z,102133.46
2018-05-27T19:48:46.408Z,102135.25
2018-05-27T19:51:14.025Z,102131.28
2018-05-27T19:53:41.663Z,102133.50
2018-05-27T19:56:09.452Z,102128.25
2018-05-27T19:58:37.091Z,102131.79
2018-05-27T20:01:04.702Z,102134.87
2018-05-27T20:03:32.407Z,102129.59
2018-05-27T20:06:00.068Z,102128.27
2018-05-27T20:08:27.707Z,102120.83
2018-05-27T20:10:55.326Z,102125.22
2018-05-27T20:13:22.959Z,102119.95
2018-05-27T20:15:50.572Z,102119.09
2018-05-27T20:18:18.183Z,102114.25
2018-05-27T20:20:45.820Z,102120.85
2018-05-27T20:23:13.501Z,102121.73
2018-05-27T20:25:41.135Z,102121.73
2018-05-27T20:28:08.823Z,102115.59
2018-05-27T20:30:36.464Z,102112.95
2018-05-27T20:33:04.076Z,102114.75
2018-05-27T20:35:31.794Z,102112.12
2018-05-27T20:37:59.415Z,102120.01
2018-05-27T20:40:27.137Z,102123.97
2018-05-27T20:42:54.795Z,102127.47
2018-05-27T20:45:22.459Z,102121.34
2018-05-27T20:47:50.070Z,102121.78
2018-05-27T20:50:17.711Z,102132.30
2018-05-27T20:52:45.343Z,102138.92
2018-05-27T20:55:13.007Z,102139.80
2018-05-27T20:57:40.616Z,102135.84
2018-05-27T21:00:08.251Z,102130.16
2018-05-27T21:02:35.892Z,102132.77
2018-05-27T21:05:03.523Z,102126.19
2018-05-27T21:07:31.139Z,102118.73
2018-05-27T21:09:58.777Z,102125.31
2018-05-27T21:12:26.392Z,102128.36
2018-05-27T21:14:54.027Z,102116.53
2018-05-27T21:17:21.638Z,102103.38
2018-05-27T21:19:49.271Z,102103.79
2018-05-27T21:22:16.883Z,102095.05
2018-05-27T21:24:44.510Z,102101.18
2018-05-27T21:27:12.127Z,102088.47
2018-05-27T21:29:39.763Z,102086.71
2018-05-27T21:32:07.395Z,102078.81
2018-05-27T21:34:35.092Z,102085.38
2018-05-27T21:37:02.756Z,102077.50
2018-05-27T21:39:30.414Z,102086.69
2018-05-27T21:41:58.051Z,102085.81
2018-05-27T21:44:25.735Z,102091.07
2018-05-27T21:46:53.372Z,102085.36
2018-05-27T21:49:20.988Z,102081.42
2018-05-27T21:51:48.629Z,102084.52
2018-05-27T21:54:16.239Z,102084.52
2018-05-27T21:56:43.952Z,102086.27
2018-05-27T21:59:11.564Z,102095.47
2018-05-27T22:01:39.208Z,102100.72
2018-05-27T22:04:06.820Z,102098.11
2018-05-27T22:06:34.500Z,102102.05
2018-05-27T22:09:02.175Z,102097.65
2018-05-27T22:11:29.813Z,102097.21
2018-05-27T22:13:57.419Z,102091.97
2018-05-27T22:16:25.151Z,102088.02
2018-05-27T22:18:52.808Z,102088.89
2018-05-27T22:21:20.452Z,102094.16
2018-05-27T22:23:48.067Z,102095.46
2018-05-27T22:26:15.799Z,102087.14
2018-05-27T22:28:43.463Z,102088.45
2018-05-27T22:31:11.108Z,102075.30
2018-05-27T22:33:38.718Z,102075.28
2018-05-27T22:36:06.364Z,102074.42
2018-05-27T22:38:33.978Z,102069.58
2018-05-27T22:41:01.639Z,102077.05
2018-05-27T22:43:29.262Z,102073.09
2018-05-27T22:45:56.888Z,102076.17
2018-05-27T22:48:24.524Z,102071.80
2018-05-27T22:50:52.214Z,102077.95
2018-05-27T22:53:19.881Z,102079.67
2018-05-27T22:55:47.543Z,102081.45
2018-05-27T22:58:15.182Z,102076.63
2018-05-27T23:00:42.795Z,102078.36
2018-05-27T23:03:10.431Z,102080.98
2018-05-27T23:05:38.094Z,102078.38
2018-05-27T23:08:05.752Z,102080.11
2018-05-27T23:10:33.367Z,102085.38
2018-05-27T23:13:01.007Z,102088.03
2018-05-27T23:15:28.625Z,102089.34
2018-05-27T23:17:56.267Z,102093.72
2018-05-27T23:20:23.891Z,102086.27
2018-05-27T23:22:51.535Z,102081.89
2018-05-27T23:25:19.147Z,102088.46
2018-05-27T23:27:46.843Z,102091.95
2018-05-27T23:30:14.516Z,102093.29
2018-05-27T23:32:42.171Z,102089.34
2018-05-27T23:35:09.786Z,102085.38
2018-05-27T23:37:37.499Z,102077.94
2018-05-27T23:40:05.115Z,102077.05
2018-05-27T23:42:32.824Z,102070.48
2018-05-27T23:45:00.488Z,102066.08
2018-05-27T23:47:28.691Z,102071.36
2018-05-27T23:49:56.312Z,102064.33
2018-05-27T23:52:23.982Z,102061.70
2018-05-27T23:54:51.611Z,102061.71
2018-05-27T23:57:19.239Z,102069.15
2018-05-27T23:59:46.967Z,102078.81
